• Join FlightAware (Why Join?)
  • Login
  • US Flag 
02:38AM EDT


 

Airport Tracker/Info


-or-


 

Live Flight TrackerFlight Track Log ✈ SWA542 ✈ 09-Apr-2013 ✈ KMDW - KCMH

Flight Track Log - Related Links

Times and Time Zones

All times are in EDT time to prevent confusion due to time zone crossing. See the SWA542 flight status page for this flight to view local times or setup timezone preferences in your user account.

Time Position Orientation Groundspeed Altitude Reporting Facility
EDT Latitude Longitude Course Direction KTS MPH feet Rate Location/Type
11:07PM 41.8333 -87.7500 90° East 222 255 3,300  Level Chicago TRACON
11:09PM 41.8522 -87.5411 83° East 276 318 5,400 1,920 Climbing Chicago Center
11:10PM 41.8417 -87.4328 97° East 298 343 9,500 3,780 Climbing Chicago Center
11:12PM 41.8178 -87.3194 106° East 313 360 13,100 2,940 Climbing Chicago Center
11:13PM 41.7500 -86.9582 90° East  Level FlightAware Approximate
11:13PM 41.7919 -87.1986 106° East 334 384 15,500  Level Chicago Center
11:14PM 41.7608 -87.0347 104° East 380 437 19,600 3,660 Climbing Chicago Center
11:15PM 41.7633 -86.8808 89° East 413 475 23,100 3,540 Climbing Chicago Center
11:16PM 41.7653 -86.7286 89° East 412 474 26,900 2,880 Climbing Chicago Center
11:17PM 41.7667 -86.5844 89° East 414 476 29,000 1,020 Climbing Chicago Center
11:18PM 41.7669 -86.4264 90° East 423 487 29,000  Level Chicago Center
11:19PM 41.7669 -86.2636 90° East 436 502 29,000  Level Chicago Center
11:20PM 41.7283 -86.1125 109° East 436 502 29,000  Level Chicago Center
11:21PM 41.6808 -85.9661 113° Southeast 432 497 29,000  Level Chicago Center
11:22PM 41.6028 -85.8106 124° Southeast 429 494 29,000  Level Chicago Center
11:23PM 41.5231 -85.7003 134° Southeast 421 484 29,000  Level Chicago Center
11:24PM 41.4431 -85.5883 134° Southeast 422 486 29,000  Level Chicago Center
11:25PM 41.3644 -85.4781 134° Southeast 419 482 29,000  Level Chicago Center
11:26PM 41.2856 -85.3686 134° Southeast 416 479 29,000  Level Chicago Center
11:27PM 41.2056 -85.2603 134° Southeast 414 476 29,000  Level Chicago Center
11:28PM 41.1106 -85.1314 134° Southeast 411 473 29,000  Level Chicago Center
11:29PM 41.0317 -85.0236 134° Southeast 411 473 29,000 -720 Level Chicago Center
11:30PM 40.9547 -84.9178 134° Southeast 404 465 27,600 -1,740 Descending Chicago Center
11:31PM 40.8786 -84.8142 134° Southeast 397 457 25,500 -1,320 Descending Chicago Center
11:32PM 40.8256 -84.6889 119° Southeast 408 470 25,000 -540 Descending Chicago Center
11:33PM 40.7842 -84.5572 113° Southeast 396 456 24,500 -540 Descending Chicago Center
11:34PM 40.7408 -84.4247 113° Southeast 397 457 24,000 -720 Descending Chicago Center
11:35PM 40.7061 -84.3006 110° East 398 458 23,300 -960 Descending Indianapolis Center
11:36PM 40.6628 -84.1644 113° Southeast 399 459 22,300 -1,020 Descending Indianapolis Center
11:37PM 40.6192 -84.0264 113° Southeast 402 463 21,300 -1,140 Descending Indianapolis Center
11:38PM 40.5764 -83.8917 113° Southeast 397 457 20,100 -1,380 Descending Indianapolis Center
11:39PM 40.5344 -83.7631 113° Southeast 380 437 18,600 -1,620 Descending Indianapolis Center
11:40PM 40.4781 -83.6447 122° Southeast 376 433 16,900 -1,740 Descending Indianapolis Center
11:40PM 40.4564 -83.6008 123° Southeast 370 426 16,200 -1,980 Descending Indianapolis Center
11:41PM 40.4225 -83.5314 123° Southeast 369 425 14,900 -2,220 Descending Indianapolis Center
11:42PM 40.3722 -83.4164 120° Southeast 361 415 12,600 -1,980 Descending Indianapolis Center
11:43PM 40.3233 -83.3025 119° Southeast 357 411 10,900 -1,320 Descending Indianapolis Center
11:44PM 40.2775 -83.1894 118° Southeast 349 402 10,000 -840 Descending Indianapolis Center
11:44PM 40.2619 -83.1558 121° Southeast 338 389 9,900 -900 Descending Indianapolis Center
11:45PM 40.2347 -83.0811 115° Southeast 333 383 9,100 -1,140 Descending Indianapolis Center
11:46PM 40.1944 -82.9778 117° Southeast 319 367 7,900 -1,320 Descending Indianapolis Center
11:47PM 40.1528 -82.8778 119° Southeast 310 357 6,500 -1,260 Descending Indianapolis Center
11:48PM 40.1003 -82.8111 136° Southeast 264 304 5,400 -1,020 Descending Indianapolis Center
11:49PM 40.0469 -82.7606 144° Southeast 242 278 4,500 -1,020 Descending Indianapolis Center
11:50PM 40.0031 -82.7347 156° South 198 228 3,400 -1,140 Descending Indianapolis Center
11:51PM 39.9875 -82.7633 235° Southwest 136 157 2,300 -840 Descending Indianapolis Center
11:52PM 39.9897 -82.8031 274° West 115 132 1,800 -600 Descending Indianapolis Center
11:53PM 39.9914 -82.8447 273° West 112 129 1,200 -360 Descending Indianapolis Center
11:54PM 39.9933 -82.8867 273° West 114 131 1,100 -120 Descending Indianapolis Center